Time;durP1;ratioP1;P1;durP2;ratioP2;P2;SDS_P1;SDS_P2;PMS_P1;PMS_P2;Temp;Humidity;BMP_temperature;BMP_pressure;BME280_temperature;BME280_humidity;BME280_pressure;Samples;Min_cycle;Max_cycle;Signal;HPM_P1;HPM_P2
2021/12/25 00:01:54;;;;;;;10.68;6.90;;;8.00;80.20;;;;;;5077555;28;20043;-65
2021/12/25 00:04:20;;;;;;;10.13;6.43;;;8.00;80.20;;;;;;5076880;28;20063;-65
2021/12/25 00:06:45;;;;;;;10.30;6.70;;;7.90;80.00;;;;;;5075711;28;20025;-65
2021/12/25 00:09:11;;;;;;;10.55;6.75;;;7.90;80.10;;;;;;5059912;28;20086;-65
2021/12/25 00:11:37;;;;;;;9.50;6.18;;;7.90;80.10;;;;;;5076831;28;20033;-64
2021/12/25 00:14:10;;;;;;;10.18;6.20;;;7.90;80.10;;;;;;5076818;28;20047;-65
2021/12/25 00:16:36;;;;;;;10.68;6.93;;;7.90;80.10;;;;;;5076827;28;20028;-65
2021/12/25 00:19:01;;;;;;;11.80;7.57;;;7.90;80.00;;;;;;5059663;28;20174;-65
2021/12/25 00:21:27;;;;;;;9.98;5.93;;;7.90;80.00;;;;;;5076005;28;20028;-65
2021/12/25 00:23:52;;;;;;;10.85;7.22;;;7.90;79.90;;;;;;5077054;28;20017;-65
2021/12/25 00:26:41;;;;;;;10.38;6.85;;;7.90;79.90;;;;;;5075816;28;20028;-64
2021/12/25 00:32:09;;;;;;;10.60;6.82;;;7.80;79.80;;;;;;5064515;28;20076;-65
2021/12/25 00:34:36;;;;;;;11.10;7.28;;;7.80;79.80;;;;;;5075783;28;20020;-65
2021/12/25 00:37:02;;;;;;;11.32;7.28;;;7.70;79.80;;;;;;5076012;28;20032;-65
2021/12/25 00:39:29;;;;;;;11.07;6.93;;;7.70;79.70;;;;;;5059108;28;20032;-65
2021/12/25 00:41:56;;;;;;;9.83;6.13;;;7.70;79.70;;;;;;5076303;28;20035;-65
2021/12/25 00:44:23;;;;;;;11.60;7.25;;;7.60;79.70;;;;;;5075647;28;20035;-65
2021/12/25 00:46:48;;;;;;;9.80;6.18;;;7.60;79.90;;;;;;5076919;28;20360;-65
2021/12/25 00:49:14;;;;;;;10.45;6.53;;;7.60;79.80;;;;;;5059177;28;20119;-65
2021/12/25 00:51:40;;;;;;;8.75;5.30;;;7.60;79.70;;;;;;5075467;28;20169;-65
2021/12/25 00:54:06;;;;;;;9.73;5.93;;;7.60;79.70;;;;;;5077009;28;20056;-65
2021/12/25 00:56:31;;;;;;;8.80;5.17;;;7.60;79.60;;;;;;5075721;28;20102;-65
2021/12/25 00:58:57;;;;;;;8.50;4.93;;;7.60;79.60;;;;;;5076822;28;20036;-65
2021/12/25 01:01:22;;;;;;;8.68;4.95;;;7.50;79.50;;;;;;5074888;28;20025;-65
2021/12/25 01:03:48;;;;;;;9.43;5.90;;;7.50;79.60;;;;;;5058984;28;20392;-65
2021/12/25 01:06:14;;;;;;;9.55;6.20;;;7.40;79.50;;;;;;5058764;28;20059;-65
2021/12/25 01:08:40;;;;;;;9.33;5.33;;;7.40;79.60;;;;;;5058654;28;20409;-64
2021/12/25 01:11:06;;;;;;;8.73;5.33;;;7.40;79.60;;;;;;5076328;28;20404;-65
2021/12/25 01:13:38;;;;;;;9.03;5.53;;;7.30;79.60;;;;;;5058660;28;20033;-65
2021/12/25 01:27:55;;;;;;;10.50;7.13;;;7.10;79.20;;;;;;5072929;28;20025;-65
2021/12/25 01:33:19;;;;;;;10.30;6.70;;;7.00;79.30;;;;;;5075465;28;20373;-65
2021/12/25 01:39:16;;;;;;;11.13;7.57;;;6.90;79.20;;;;;;5073925;28;20044;-64
2021/12/25 01:47:42;;;;;;;12.97;8.40;;;6.80;79.20;;;;;;5072637;28;20154;-65
2021/12/25 01:47:57;;;;;;;13.67;9.10;;;6.70;79.20;;;;;;5060445;28;20028;-65
2021/12/25 01:50:28;;;;;;;13.97;9.23;;;6.80;79.20;;;;;;5074582;28;20017;-64
2021/12/25 01:52:55;;;;;;;12.97;9.10;;;6.80;79.00;;;;;;5073280;28;20082;-64
2021/12/25 01:55:24;;;;;;;12.83;8.70;;;6.70;78.80;;;;;;5074230;28;20025;-65
2021/12/25 01:57:50;;;;;;;14.73;9.97;;;6.70;78.80;;;;;;5074164;28;20094;-64
2021/12/25 02:00:29;;;;;;;15.73;9.80;;;6.70;78.70;;;;;;5074325;28;20028;-65
2021/12/25 02:02:55;;;;;;;13.87;9.27;;;6.60;78.50;;;;;;5074688;28;20075;-65
2021/12/25 02:05:22;;;;;;;14.30;9.87;;;6.60;78.60;;;;;;5079976;28;20417;-64
2021/12/25 02:07:48;;;;;;;16.43;11.63;;;6.60;78.60;;;;;;5057652;28;20031;-65
2021/12/25 02:10:15;;;;;;;16.07;11.30;;;6.50;78.50;;;;;;5057643;28;20020;-64
2021/12/25 02:12:44;;;;;;;15.73;11.43;;;6.50;78.50;;;;;;5073750;28;20025;-64
2021/12/25 02:15:15;;;;;;;14.93;10.40;;;6.50;78.50;;;;;;5061153;28;20032;-64
2021/12/25 02:20:40;;;;;;;15.67;11.53;;;6.40;78.40;;;;;;5055250;28;20029;-64
2021/12/25 02:23:16;;;;;;;18.07;13.07;;;6.40;78.50;;;;;;5074166;28;20078;-64
2021/12/25 02:25:42;;;;;;;18.27;12.50;;;6.30;78.40;;;;;;5073699;28;20123;-65
2021/12/25 02:28:11;;;;;;;16.93;11.80;;;6.30;78.50;;;;;;5057015;28;20079;-64
2021/12/25 02:30:37;;;;;;;19.50;12.80;;;6.30;78.40;;;;;;5073379;28;20044;-64
2021/12/25 02:33:02;;;;;;;17.07;11.53;;;6.40;78.40;;;;;;5054097;28;20374;-64
2021/12/25 02:35:29;;;;;;;16.30;11.60;;;6.40;78.20;;;;;;5073565;28;20024;-64
2021/12/25 02:37:55;;;;;;;19.00;12.93;;;6.40;78.10;;;;;;5073561;28;20039;-64
2021/12/25 02:40:21;;;;;;;16.20;11.47;;;6.40;77.90;;;;;;5073669;28;20077;-64
2021/12/25 02:42:46;;;;;;;19.30;13.27;;;6.30;77.90;;;;;;5072384;28;20111;-64
2021/12/25 02:45:18;;;;;;;18.67;12.03;;;6.30;77.90;;;;;;5062022;28;20159;-64
2021/12/25 02:47:45;;;;;;;18.55;12.13;;;6.30;77.90;;;;;;5073689;28;20115;-64
2021/12/25 02:50:12;;;;;;;19.33;13.20;;;6.30;77.90;;;;;;5073640;28;20025;-65
2021/12/25 02:52:39;;;;;;;17.70;12.77;;;6.30;77.90;;;;;;5053298;28;20039;-64
2021/12/25 02:55:07;;;;;;;19.30;12.30;;;6.30;77.90;;;;;;5038710;28;20021;-64
2021/12/25 02:57:33;;;;;;;21.80;14.77;;;6.30;77.90;;;;;;5073385;28;20031;-65
2021/12/25 02:59:59;;;;;;;18.63;12.17;;;6.30;77.80;;;;;;5054006;28;20025;-64
2021/12/25 03:02:25;;;;;;;20.17;13.67;;;6.30;77.80;;;;;;5073064;28;20068;-64
2021/12/25 03:04:51;;;;;;;18.90;12.40;;;6.30;77.90;;;;;;5073965;28;20047;-65
2021/12/25 03:07:17;;;;;;;18.47;13.07;;;6.30;77.80;;;;;;5073297;28;20040;-64
2021/12/25 03:09:44;;;;;;;19.47;13.00;;;6.30;77.80;;;;;;5053038;28;20023;-64
2021/12/25 03:12:14;;;;;;;22.03;14.70;;;6.20;77.80;;;;;;5063245;28;20356;-64
2021/12/25 03:15:02;;;;;;;20.40;13.30;;;6.20;77.80;;;;;;5073055;28;20082;-65
2021/12/25 03:17:29;;;;;;;21.03;13.93;;;6.20;77.80;;;;;;5073108;28;20377;-64
2021/12/25 03:19:55;;;;;;;20.80;12.83;;;6.20;77.80;;;;;;5072775;28;20086;-64
2021/12/25 03:22:22;;;;;;;18.20;11.90;;;6.20;77.80;;;;;;5073194;28;20079;-65
2021/12/25 03:24:48;;;;;;;19.10;12.60;;;6.20;77.70;;;;;;5056031;28;20036;-65
2021/12/25 03:27:16;;;;;;;16.77;10.27;;;6.10;77.70;;;;;;5056876;28;20036;-65
2021/12/25 03:29:42;;;;;;;21.77;12.87;;;6.10;77.60;;;;;;5072831;28;20025;-64
2021/12/25 03:32:09;;;;;;;17.30;11.03;;;6.10;77.50;;;;;;5073278;28;20071;-64
2021/12/25 03:34:36;;;;;;;19.47;12.70;;;6.00;77.40;;;;;;5073213;28;20039;-64
2021/12/25 03:37:02;;;;;;;17.53;11.77;;;6.00;77.40;;;;;;5055913;28;20036;-64
2021/12/25 03:39:28;;;;;;;18.53;10.70;;;6.00;77.40;;;;;;5072969;28;20046;-64
2021/12/25 03:41:57;;;;;;;16.77;10.60;;;6.00;77.40;;;;;;5056394;28;20082;-64
2021/12/25 03:44:23;;;;;;;18.00;11.30;;;6.00;77.40;;;;;;5072558;28;20036;-65
2021/12/25 03:46:49;;;;;;;16.80;10.30;;;6.00;77.30;;;;;;5074026;28;20032;-64
2021/12/25 03:49:27;;;;;;;17.67;11.07;;;5.90;77.20;;;;;;5072867;28;20460;-64
2021/12/25 03:57:49;;;;;;;13.97;9.47;;;5.80;77.20;;;;;;5055431;28;20033;-64
2021/12/25 04:00:16;;;;;;;15.13;9.07;;;5.80;77.20;;;;;;5052428;28;20024;-64
2021/12/25 04:02:54;;;;;;;14.43;9.03;;;5.70;77.40;;;;;;5059805;28;20024;-64
2021/12/25 04:05:28;;;;;;;14.65;9.00;;;5.70;77.40;;;;;;5054369;28;20031;-65
2021/12/25 04:08:06;;;;;;;13.63;7.87;;;5.60;77.10;;;;;;5072236;28;20039;-64
2021/12/25 04:10:38;;;;;;;16.33;8.13;;;5.70;77.10;;;;;;5055389;28;20036;-64
2021/12/25 04:13:07;;;;;;;14.00;8.37;;;5.60;77.00;;;;;;5071785;28;20110;-64
2021/12/25 04:15:33;;;;;;;14.07;7.53;;;5.60;76.90;;;;;;5039632;28;20052;-64
2021/12/25 04:17:59;;;;;;;11.67;6.83;;;5.60;76.80;;;;;;5058659;28;20413;-64
2021/12/25 04:20:25;;;;;;;13.80;8.17;;;5.50;76.80;;;;;;5058214;28;20028;-65
2021/12/25 04:23:01;;;;;;;12.97;7.53;;;5.60;76.70;;;;;;5058722;28;20396;-64
2021/12/25 04:25:29;;;;;;;11.97;7.23;;;5.60;76.70;;;;;;5057751;28;20453;-64
2021/12/25 04:28:00;;;;;;;11.43;6.60;;;5.60;76.60;;;;;;5061221;28;20037;-64
2021/12/25 05:05:33;;;;;;;9.37;4.90;;;5.20;75.80;;;;;;5059041;28;20060;-64
2021/12/25 05:08:05;;;;;;;8.43;4.13;;;5.10;75.80;;;;;;5075015;28;20044;-64
2021/12/25 05:10:30;;;;;;;8.40;4.40;;;5.10;75.50;;;;;;5075150;28;20056;-65
2021/12/25 05:12:57;;;;;;;8.40;4.37;;;5.10;75.40;;;;;;5075205;28;20445;-65
2021/12/25 05:15:23;;;;;;;7.00;3.60;;;5.10;75.30;;;;;;5074777;28;20016;-64
2021/12/25 05:17:49;;;;;;;7.20;3.70;;;5.10;75.20;;;;;;5074625;28;20460;-64
2021/12/25 05:20:15;;;;;;;6.97;3.43;;;5.00;75.00;;;;;;5074652;28;20025;-64
2021/12/25 05:22:40;;;;;;;8.23;3.00;;;5.00;74.90;;;;;;5075921;28;20035;-64
2021/12/25 05:25:07;;;;;;;6.07;2.80;;;4.90;74.90;;;;;;5058368;28;20025;-64
2021/12/25 05:27:36;;;;;;;7.20;3.23;;;4.90;74.80;;;;;;5073363;28;20404;-65
2021/12/25 05:30:03;;;;;;;7.47;3.30;;;4.90;74.80;;;;;;5074040;28;20041;-64
2021/12/25 05:32:40;;;;;;;7.27;3.03;;;4.90;74.70;;;;;;5074705;28;20338;-64
2021/12/25 05:35:21;;;;;;;5.93;2.60;;;4.90;74.60;;;;;;5074717;28;20056;-64
2021/12/25 05:38:14;;;;;;;7.60;2.63;;;4.90;74.50;;;;;;5074506;28;20063;-64
2021/12/25 05:40:51;;;;;;;8.63;2.85;;;4.80;74.40;;;;;;5075560;28;20119;-65
2021/12/25 05:43:17;;;;;;;6.20;2.57;;;4.80;74.30;;;;;;5074472;28;20115;-64
2021/12/25 05:45:43;;;;;;;5.83;2.60;;;4.80;74.20;;;;;;5057845;28;20505;-64
2021/12/25 05:48:15;;;;;;;5.40;2.30;;;4.80;74.10;;;;;;5058453;28;20052;-64
2021/12/25 05:50:45;;;;;;;6.03;2.33;;;4.80;74.00;;;;;;5075418;28;20040;-64
2021/12/25 05:53:30;;;;;;;5.67;2.50;;;4.80;73.90;;;;;;5060102;28;20433;-64
2021/12/25 05:56:15;;;;;;;4.77;2.30;;;4.70;73.70;;;;;;5074717;28;20043;-64
2021/12/25 05:58:51;;;;;;;5.33;2.43;;;4.60;73.60;;;;;;5074418;28;20033;-64
2021/12/25 06:01:23;;;;;;;4.53;2.37;;;4.60;73.70;;;;;;5056152;28;20028;-64
2021/12/25 06:03:49;;;;;;;5.73;2.60;;;4.50;73.60;;;;;;5071943;28;20129;-64
2021/12/25 06:06:15;;;;;;;5.37;2.73;;;4.50;73.50;;;;;;5072796;28;20166;-64
2021/12/25 06:08:41;;;;;;;6.33;2.80;;;4.50;73.40;;;;;;5074589;28;20037;-65
2021/12/25 06:11:06;;;;;;;5.23;2.37;;;4.50;73.40;;;;;;5074826;28;20094;-64
2021/12/25 06:13:36;;;;;;;5.10;2.47;;;4.50;73.30;;;;;;5053986;28;20040;-64
2021/12/25 06:16:02;;;;;;;5.57;2.80;;;4.50;73.20;;;;;;5073275;28;20032;-64
2021/12/25 06:18:56;;;;;;;5.30;2.40;;;4.50;73.10;;;;;;5073784;28;20035;-64
2021/12/25 06:21:24;;;;;;;6.73;2.87;;;4.50;73.10;;;;;;5057407;28;20357;-64
2021/12/25 06:24:08;;;;;;;6.80;2.87;;;4.40;73.00;;;;;;5070442;28;20024;-64
2021/12/25 06:26:57;;;;;;;6.17;2.80;;;4.50;73.00;;;;;;5055495;28;20088;-64
2021/12/25 06:29:36;;;;;;;5.70;2.80;;;4.40;72.90;;;;;;5072735;28;20025;-64
2021/12/25 06:32:18;;;;;;;7.37;3.23;;;4.40;72.90;;;;;;5072834;28;20024;-64
2021/12/25 06:35:05;;;;;;;6.30;3.20;;;4.40;72.80;;;;;;5059415;28;20034;-64
2021/12/25 06:37:57;;;;;;;6.67;3.10;;;4.30;72.70;;;;;;5058568;28;20032;-63
2021/12/25 06:40:31;;;;;;;11.10;3.90;;;4.30;72.80;;;;;;5073480;28;20478;-64
2021/12/25 06:42:58;;;;;;;6.47;2.70;;;4.20;72.70;;;;;;5073180;28;20045;-64
2021/12/25 06:45:25;;;;;;;6.67;3.07;;;4.20;72.60;;;;;;5073428;28;20410;-64
2021/12/25 06:47:51;;;;;;;6.50;3.10;;;4.30;72.60;;;;;;5073834;28;20039;-63
2021/12/25 06:50:55;;;;;;;6.70;3.43;;;4.30;72.50;;;;;;5053306;28;20137;-63
2021/12/25 06:53:41;;;;;;;7.07;3.30;;;4.30;72.50;;;;;;5045685;28;20048;-63
2021/12/25 06:56:29;;;;;;;6.57;3.17;;;4.30;72.30;;;;;;5030801;28;20124;-64
2021/12/25 06:58:57;;;;;;;7.23;3.53;;;4.20;72.20;;;;;;5053112;28;20071;-64
2021/12/25 07:01:23;;;;;;;6.77;3.50;;;4.30;72.20;;;;;;5049588;28;20053;-64
2021/12/25 07:03:48;;;;;;;6.10;3.23;;;4.20;72.00;;;;;;5036241;28;20071;-64
2021/12/25 07:06:43;;;;;;;6.17;2.80;;;4.20;71.90;;;;;;5052991;28;20038;-64
2021/12/25 07:09:27;;;;;;;6.47;3.07;;;4.10;72.00;;;;;;5038754;28;20044;-64
2021/12/25 07:12:13;;;;;;;9.27;3.87;;;4.10;71.90;;;;;;5009218;28;20029;-64
2021/12/25 07:15:06;;;;;;;6.00;2.87;;;4.10;71.90;;;;;;5037354;28;20033;-64
2021/12/25 07:17:55;;;;;;;7.70;3.10;;;4.10;71.80;;;;;;5010726;28;20045;-64
2021/12/25 07:20:42;;;;;;;6.30;2.93;;;4.10;71.80;;;;;;4974443;28;20073;-64
2021/12/25 07:23:28;;;;;;;7.40;3.00;;;4.10;71.70;;;;;;5001852;28;20821;-69
2021/12/25 07:26:18;;;;;;;6.07;3.40;;;4.00;71.50;;;;;;4997491;28;20138;-66
2021/12/25 07:29:09;;;;;;;6.07;3.23;;;4.00;71.50;;;;;;4980898;28;20434;-65
2021/12/25 07:31:35;;;;;;;7.70;3.57;;;4.00;71.50;;;;;;4983860;28;20129;-64
2021/12/25 07:34:02;;;;;;;5.97;3.27;;;4.00;71.40;;;;;;4984194;28;20121;-64
2021/12/25 07:36:27;;;;;;;8.43;3.50;;;3.90;71.20;;;;;;4989533;28;20180;-65
2021/12/25 07:38:54;;;;;;;6.23;3.20;;;3.90;71.20;;;;;;4975817;28;20038;-64
2021/12/25 07:41:20;;;;;;;7.57;3.20;;;3.90;71.10;;;;;;4999515;28;20042;-61
2021/12/25 07:43:45;;;;;;;5.87;3.10;;;3.90;71.00;;;;;;5003745;28;20184;-65
2021/12/25 07:46:30;;;;;;;7.13;3.47;;;3.90;71.30;;;;;;5000757;28;20058;-65
2021/12/25 07:48:56;;;;;;;7.13;3.00;;;3.90;71.00;;;;;;5012286;28;20398;-65
2021/12/25 07:51:21;;;;;;;7.27;2.90;;;3.80;70.90;;;;;;5005336;28;20104;-65
2021/12/25 07:53:47;;;;;;;6.37;3.50;;;3.80;71.00;;;;;;5011134;28;20057;-65
2021/12/25 07:56:14;;;;;;;7.40;3.60;;;3.80;70.90;;;;;;5067137;28;20107;-65
2021/12/25 07:58:40;;;;;;;6.23;3.30;;;3.80;70.90;;;;;;5076256;28;20033;-65
2021/12/25 08:01:06;;;;;;;7.07;3.70;;;3.70;70.90;;;;;;5077252;28;20047;-64
2021/12/25 08:03:32;;;;;;;8.13;3.50;;;3.70;70.80;;;;;;5076741;28;20051;-65
2021/12/25 08:05:57;;;;;;;7.40;3.87;;;3.60;70.70;;;;;;5076088;28;20024;-66
2021/12/25 08:08:23;;;;;;;6.10;3.30;;;3.60;70.70;;;;;;5077938;28;20017;-65
2021/12/25 08:10:49;;;;;;;7.63;3.57;;;3.60;70.70;;;;;;5075882;28;20115;-65
2021/12/25 08:13:16;;;;;;;6.33;3.27;;;3.60;70.60;;;;;;5077623;28;20031;-65
2021/12/25 08:15:42;;;;;;;6.17;3.37;;;3.50;70.50;;;;;;5076205;28;20086;-64
2021/12/25 08:18:09;;;;;;;7.37;3.80;;;3.50;70.40;;;;;;5076917;28;20029;-65
2021/12/25 08:20:53;;;;;;;6.87;3.10;;;3.50;70.40;;;;;;5076419;28;20515;-65
2021/12/25 08:23:42;;;;;;;7.23;3.17;;;3.50;70.30;;;;;;5036921;28;20025;-66
2021/12/25 08:26:34;;;;;;;6.65;3.15;;;3.50;70.40;;;;;;5009270;28;20136;-66
2021/12/25 08:29:08;;;;;;;7.27;3.47;;;3.40;70.20;;;;;;5034666;28;20451;-66
2021/12/25 08:31:53;;;;;;;6.63;2.90;;;3.40;70.30;;;;;;5034181;28;20052;-66
2021/12/25 08:34:21;;;;;;;6.00;2.60;;;3.30;70.20;;;;;;5019579;28;20461;-66
2021/12/25 08:36:59;;;;;;;6.17;2.53;;;3.30;70.10;;;;;;5019088;28;20041;-66
2021/12/25 08:39:25;;;;;;;7.23;2.60;;;3.30;69.80;;;;;;5035837;28;20418;-66
2021/12/25 08:41:52;;;;;;;4.70;2.27;;;3.30;69.80;;;;;;5034886;28;20053;-66
2021/12/25 08:44:36;;;;;;;5.50;2.20;;;3.20;69.70;;;;;;5002420;28;20373;-66
2021/12/25 08:47:04;;;;;;;6.73;2.33;;;3.20;69.60;;;;;;5019329;28;20049;-66
2021/12/25 08:49:32;;;;;;;4.53;2.13;;;3.30;69.50;;;;;;5035339;28;20049;-66
2021/12/25 08:52:00;;;;;;;5.97;2.43;;;3.20;69.20;;;;;;5019374;28;20045;-66
2021/12/25 08:54:26;;;;;;;7.60;2.57;;;3.20;69.20;;;;;;5036269;28;20119;-66
2021/12/25 08:56:52;;;;;;;5.97;2.23;;;3.20;69.10;;;;;;5035622;28;20041;-66
2021/12/25 08:59:18;;;;;;;5.37;2.00;;;3.20;69.10;;;;;;5035341;28;20481;-66
2021/12/25 09:01:44;;;;;;;4.50;1.97;;;3.20;69.10;;;;;;5056487;28;20041;-66
2021/12/25 09:04:09;;;;;;;4.93;1.80;;;3.20;68.80;;;;;;5076673;28;20031;-66
2021/12/25 09:06:37;;;;;;;4.53;2.00;;;3.20;68.80;;;;;;5075663;28;20025;-66
2021/12/25 09:09:03;;;;;;;5.77;1.90;;;3.10;68.60;;;;;;5075551;28;20031;-66
2021/12/25 09:11:31;;;;;;;5.10;2.10;;;3.10;68.60;;;;;;5076299;28;20032;-66
2021/12/25 09:13:56;;;;;;;3.97;1.73;;;3.20;68.50;;;;;;5075689;28;20357;-66
2021/12/25 09:16:22;;;;;;;4.10;1.60;;;3.20;68.20;;;;;;5076523;28;20385;-65
2021/12/25 09:18:48;;;;;;;3.97;1.50;;;3.20;68.10;;;;;;5075761;28;20071;-66
2021/12/25 09:21:14;;;;;;;4.27;1.50;;;3.20;67.70;;;;;;5075549;28;20089;-66
2021/12/25 09:23:40;;;;;;;3.27;1.70;;;3.20;67.80;;;;;;5076723;28;20111;-66
2021/12/25 09:26:06;;;;;;;5.03;1.90;;;3.30;67.60;;;;;;5075157;28;20055;-67
2021/12/25 09:28:31;;;;;;;4.50;1.90;;;3.40;67.40;;;;;;5074039;28;20024;-66
2021/12/25 09:30:57;;;;;;;3.57;1.33;;;3.40;67.10;;;;;;5074187;28;20558;-65
2021/12/25 09:33:23;;;;;;;2.70;1.23;;;3.40;66.80;;;;;;5075963;28;20166;-66
2021/12/25 09:35:49;;;;;;;3.80;1.60;;;3.40;66.50;;;;;;5057955;28;20068;-65
2021/12/25 09:38:14;;;;;;;2.70;1.20;;;3.40;66.20;;;;;;5075497;28;20459;-65
2021/12/25 09:40:40;;;;;;;3.33;1.47;;;3.50;66.10;;;;;;5074769;28;20031;-65
2021/12/25 09:43:06;;;;;;;3.60;1.50;;;3.40;65.70;;;;;;5075688;28;20020;-65
2021/12/25 09:45:31;;;;;;;6.17;1.63;;;3.40;65.50;;;;;;5075650;28;20074;-65
2021/12/25 09:47:57;;;;;;;4.13;1.27;;;3.50;65.30;;;;;;5072483;28;20032;-65
2021/12/25 09:50:23;;;;;;;3.93;1.60;;;3.50;65.00;;;;;;5072406;28;20040;-65
2021/12/25 09:52:48;;;;;;;3.17;1.20;;;3.50;64.90;;;;;;5058456;28;20028;-65
2021/12/25 09:55:15;;;;;;;2.47;1.17;;;3.50;64.70;;;;;;5057238;28;20351;-65
2021/12/25 09:57:41;;;;;;;3.63;1.50;;;3.50;64.30;;;;;;5054878;28;20143;-64
2021/12/25 10:00:13;;;;;;;2.93;1.37;;;3.50;64.10;;;;;;5059339;28;20120;-65
2021/12/25 10:02:57;;;;;;;3.33;1.30;;;3.50;64.10;;;;;;5074811;28;20040;-65
2021/12/25 10:05:41;;;;;;;2.30;1.00;;;3.60;63.20;;;;;;5074009;28;20022;-65
2021/12/25 10:08:27;;;;;;;3.83;1.40;;;3.80;63.00;;;;;;5075527;28;20033;-64
2021/12/25 10:10:59;;;;;;;2.93;1.10;;;3.90;62.10;;;;;;5075196;28;20033;-65
2021/12/25 10:13:30;;;;;;;3.93;1.30;;;4.00;62.00;;;;;;5074074;28;20122;-63
2021/12/25 10:16:20;;;;;;;3.13;1.40;;;4.10;61.80;;;;;;5059827;28;20052;-63
2021/12/25 10:18:47;;;;;;;3.90;1.40;;;4.40;61.30;;;;;;5057901;28;20306;-62
2021/12/25 10:21:27;;;;;;;3.43;1.13;;;4.70;60.90;;;;;;5059496;28;20377;-63
2021/12/25 10:24:25;;;;;;;3.10;1.30;;;4.90;60.00;;;;;;5057573;28;20036;-62
2021/12/25 10:26:50;;;;;;;2.93;1.40;;;5.00;59.60;;;;;;5072082;28;20345;-62
2021/12/25 10:29:22;;;;;;;2.27;1.13;;;5.20;59.70;;;;;;5053097;28;20120;-63
2021/12/25 10:31:50;;;;;;;4.20;1.13;;;5.30;59.30;;;;;;5062254;28;20041;-63
2021/12/25 10:34:22;;;;;;;3.40;1.10;;;5.40;59.20;;;;;;5053128;28;20032;-63
2021/12/25 10:36:49;;;;;;;3.00;1.30;;;5.40;58.80;;;;;;5057225;28;20033;-63
2021/12/25 10:39:25;;;;;;;2.60;1.10;;;5.60;58.60;;;;;;5056158;28;20029;-63
2021/12/25 10:41:57;;;;;;;3.63;1.10;;;5.70;58.20;;;;;;5071847;28;20029;-63
2021/12/25 10:44:28;;;;;;;3.83;1.50;;;5.70;57.80;;;;;;5053975;28;20178;-64
2021/12/25 10:47:03;;;;;;;2.50;1.27;;;5.80;57.70;;;;;;5058469;28;20024;-63
2021/12/25 10:49:35;;;;;;;4.67;1.67;;;5.80;57.60;;;;;;5054045;28;20048;-63
2021/12/25 10:52:20;;;;;;;;;;;5.80;57.40;;;;;;5061158;28;20036;-63
2021/12/25 10:54:55;;;;;;;4.40;1.70;;;5.80;57.90;;;;;;5057138;28;19916;-63
2021/12/25 10:57:38;;;;;;;5.53;1.97;;;5.80;58.00;;;;;;5055916;28;20468;-63
2021/12/25 11:00:12;;;;;;;3.53;1.30;;;5.90;57.40;;;;;;5053891;28;20108;-63
2021/12/25 11:02:47;;;;;;;4.90;1.73;;;5.90;57.30;;;;;;5058720;28;20127;-64
2021/12/25 11:05:23;;;;;;;5.37;2.00;;;5.80;57.00;;;;;;5057850;28;20090;-63
2021/12/25 11:08:19;;;;;;;3.77;1.40;;;5.80;56.80;;;;;;5055344;28;20041;-65
2021/12/25 11:10:48;;;;;;;2.53;1.20;;;5.80;56.70;;;;;;5072408;28;20111;-65
2021/12/25 11:13:27;;;;;;;3.30;1.30;;;5.80;56.90;;;;;;5056264;28;20415;-64
2021/12/25 11:16:04;;;;;;;3.43;1.30;;;5.80;56.60;;;;;;5058684;28;20133;-66
2021/12/25 11:18:47;;;;;;;3.47;1.30;;;5.80;56.60;;;;;;5055985;28;20514;-64
2021/12/25 11:21:12;;;;;;;2.97;1.20;;;5.80;56.60;;;;;;5059178;28;20039;-64
2021/12/25 11:23:38;;;;;;;2.60;1.20;;;5.70;56.30;;;;;;5058800;28;20317;-64
2021/12/25 11:26:04;;;;;;;2.90;1.57;;;5.60;56.40;;;;;;5058154;28;20029;-64
2021/12/25 11:28:30;;;;;;;3.77;1.40;;;5.40;56.20;;;;;;5059753;28;20392;-64
2021/12/25 11:30:55;;;;;;;2.77;1.27;;;5.30;56.30;;;;;;5062784;28;20047;-64
2021/12/25 11:33:21;;;;;;;4.60;1.43;;;5.20;56.30;;;;;;5065067;28;20052;-64
2021/12/25 11:35:47;;;;;;;4.83;1.37;;;5.20;56.40;;;;;;5071410;28;20043;-64
2021/12/25 11:38:13;;;;;;;2.53;1.10;;;5.10;56.30;;;;;;5074501;28;20028;-64
2021/12/25 11:40:45;;;;;;;6.77;1.43;;;5.00;56.20;;;;;;5073305;28;20032;-64
2021/12/25 11:43:11;;;;;;;2.80;1.20;;;4.90;56.20;;;;;;5073224;28;20081;-64
2021/12/25 11:45:41;;;;;;;4.87;1.37;;;4.90;56.30;;;;;;5076355;28;20024;-65
2021/12/25 11:48:18;;;;;;;2.80;1.20;;;4.80;56.10;;;;;;5074643;28;20024;-65
2021/12/25 11:50:47;;;;;;;3.93;1.53;;;4.70;56.00;;;;;;5073453;28;20404;-66
2021/12/25 11:53:27;;;;;;;4.73;1.50;;;4.60;56.20;;;;;;5074784;28;20033;-65
2021/12/25 11:58:56;;;;;;;2.90;1.30;;;4.60;56.00;;;;;;5075282;28;20078;-65
2021/12/25 12:01:38;;;;;;;3.13;1.10;;;4.60;56.20;;;;;;5081715;28;20071;-65
2021/12/25 12:04:15;;;;;;;;;;;4.60;56.10;;;;;;5060876;28;20345;-65
2021/12/25 12:06:46;;;;;;;3.33;1.23;;;4.50;56.20;;;;;;5078134;28;19933;-65
2021/12/25 12:09:20;;;;;;;3.40;1.33;;;4.40;56.40;;;;;;5077757;28;20028;-65
2021/12/25 12:12:04;;;;;;;3.90;1.20;;;4.40;56.30;;;;;;5076596;28;20121;-65
2021/12/25 12:15:09;;;;;;;4.57;1.53;;;4.40;56.20;;;;;;5061800;28;20041;-65
2021/12/25 12:17:55;;;;;;;2.47;1.20;;;4.40;56.20;;;;;;5077093;28;20039;-65
2021/12/25 12:20:41;;;;;;;4.90;1.50;;;4.30;57.00;;;;;;5076764;28;20024;-65
2021/12/25 12:24:07;;;;;;;4.77;1.40;;;4.40;56.70;;;;;;5077454;28;20024;-65
2021/12/25 12:26:43;;;;;;;4.03;1.40;;;4.40;56.00;;;;;;5076532;28;20441;-65
2021/12/25 12:29:10;;;;;;;3.23;1.10;;;4.30;56.00;;;;;;5077337;28;20037;-65
2021/12/25 12:31:44;;;;;;;4.73;1.33;;;4.30;56.20;;;;;;5077756;28;20403;-65
2021/12/25 12:34:31;;;;;;;5.60;1.40;;;4.40;56.00;;;;;;5077863;28;20024;-65
2021/12/25 12:37:16;;;;;;;3.63;1.60;;;4.40;55.80;;;;;;5059072;28;20059;-65
2021/12/25 12:39:53;;;;;;;3.00;1.20;;;4.40;55.80;;;;;;5077292;28;20032;-65
2021/12/25 12:42:20;;;;;;;3.03;1.37;;;4.40;55.90;;;;;;5077492;28;20037;-65
2021/12/25 12:44:53;;;;;;;4.50;1.40;;;4.40;55.80;;;;;;5077415;28;20106;-65
2021/12/25 12:47:19;;;;;;;4.63;1.20;;;4.40;55.50;;;;;;5075244;28;20147;-65
2021/12/25 12:49:50;;;;;;;3.43;1.37;;;4.40;55.60;;;;;;5058649;28;20338;-65
2021/12/25 12:52:24;;;;;;;4.35;1.60;;;4.30;55.50;;;;;;5075396;28;20032;-65
2021/12/25 12:55:05;;;;;;;3.30;1.20;;;4.30;55.50;;;;;;5075905;28;20055;-64
2021/12/25 12:57:40;;;;;;;3.17;1.20;;;4.30;55.30;;;;;;5067638;28;20559;-65
2021/12/25 13:00:18;;;;;;;4.97;1.67;;;4.30;55.30;;;;;;5075641;28;20040;-65
2021/12/25 13:02:50;;;;;;;3.20;1.10;;;4.30;55.10;;;;;;5075759;28;20025;-65
2021/12/25 13:05:41;;;;;;;2.57;1.13;;;4.30;55.10;;;;;;5074601;28;20036;-64
2021/12/25 13:08:13;;;;;;;4.53;1.43;;;4.30;54.90;;;;;;5052328;28;20515;-64
2021/12/25 13:10:46;;;;;;;2.67;1.30;;;4.20;54.60;;;;;;5069690;28;20042;-64
2021/12/25 13:13:17;;;;;;;2.77;1.00;;;4.20;54.90;;;;;;5076060;28;20414;-65
2021/12/25 13:15:45;;;;;;;5.43;1.30;;;4.20;54.80;;;;;;5076269;28;20028;-64
2021/12/25 13:18:12;;;;;;;3.77;1.47;;;4.20;54.80;;;;;;5071437;28;20036;-64
2021/12/25 13:20:44;;;;;;;3.80;1.47;;;4.20;54.70;;;;;;5063515;28;20029;-64
2021/12/25 13:23:20;;;;;;;3.87;1.47;;;4.20;54.60;;;;;;5057253;28;20036;-64
2021/12/25 13:25:57;;;;;;;5.67;1.73;;;4.10;54.40;;;;;;5069915;28;20040;-64
2021/12/25 13:28:26;;;;;;;3.70;1.60;;;4.10;54.30;;;;;;5075183;28;20330;-64
2021/12/25 13:30:55;;;;;;;3.43;1.10;;;4.10;54.30;;;;;;5075174;28;20469;-64
2021/12/25 13:33:24;;;;;;;4.37;1.37;;;4.00;54.10;;;;;;5075528;28;20067;-65
2021/12/25 13:36:18;;;;;;;4.90;1.70;;;4.00;53.90;;;;;;5075260;28;20020;-64
2021/12/25 13:38:57;;;;;;;4.67;1.77;;;4.00;53.80;;;;;;5075424;28;20318;-64
2021/12/25 13:41:36;;;;;;;3.67;1.33;;;4.00;54.00;;;;;;5074734;28;20447;-64
2021/12/25 13:44:12;;;;;;;3.53;1.30;;;4.00;54.00;;;;;;5075212;28;20029;-64
2021/12/25 13:46:56;;;;;;;3.30;1.50;;;4.00;54.00;;;;;;5057359;28;20013;-64
2021/12/25 13:49:36;;;;;;;3.83;1.37;;;4.00;53.80;;;;;;5072005;28;20020;-67
2021/12/25 13:52:20;;;;;;;3.77;1.53;;;4.00;53.80;;;;;;5073542;28;20028;-64
2021/12/25 13:55:02;;;;;;;3.23;1.30;;;4.10;53.70;;;;;;5049434;28;20040;-64
2021/12/25 13:57:29;;;;;;;4.73;1.67;;;4.00;53.50;;;;;;5073196;28;20043;-64
2021/12/25 13:59:58;;;;;;;2.93;1.30;;;4.00;53.70;;;;;;5073660;28;20119;-64
2021/12/25 14:02:25;;;;;;;4.87;1.50;;;4.00;53.60;;;;;;5057191;28;20029;-64
2021/12/25 14:04:52;;;;;;;4.83;1.50;;;4.00;53.60;;;;;;5074034;28;20356;-66
2021/12/25 14:07:24;;;;;;;3.33;1.40;;;4.00;53.40;;;;;;5066397;28;20119;-64
2021/12/25 14:09:55;;;;;;;;;;;4.00;53.40;;;;;;5074533;28;20028;-64
2021/12/25 14:12:23;;;;;;;5.97;1.43;;;3.90;53.60;;;;;;5067830;28;19939;-64
2021/12/25 14:14:50;;;;;;;4.77;1.50;;;3.90;53.80;;;;;;5056846;28;20134;-64
2021/12/25 14:17:15;;;;;;;3.07;1.30;;;3.90;53.80;;;;;;5069849;28;20038;-64
2021/12/25 14:19:41;;;;;;;4.27;1.30;;;3.80;53.50;;;;;;5065283;28;20046;-64
2021/12/25 14:22:07;;;;;;;5.17;1.57;;;3.80;53.50;;;;;;5057650;28;20131;-64
2021/12/25 14:24:47;;;;;;;3.50;1.30;;;3.80;53.50;;;;;;5073939;28;20337;-64
2021/12/25 14:27:17;;;;;;;4.87;1.57;;;3.80;53.30;;;;;;5056701;28;20078;-64
2021/12/25 14:29:43;;;;;;;5.67;1.73;;;3.80;53.30;;;;;;5073285;28;20060;-64